»·PEaware :: WAT380 KSNA-KSBA

WAT380 :: KSNA-KSBA

FLIGHT INFORMATION

Flight Status: Arrived
Operator:
Walker Air Transport
More flights by this operator :: More flights under this callsign
Pilot: Spencer M. (27733)
Aircraft: ROCKWELL 690 TURBO COMMANDER
(AC90)
More flights by this aircraft type
Origin: KSNA John Wayne-Orange Co
United States
Destination: KSBA Santa Barbara Mun
United States
More flights between these airports :: More routes between these airports
Route: + / KWANG
File this flight plan on PilotEdge
Remarks: TEC Route CSTP28
Altitude:
(Current/Filed)
8,000ft
Speed:
(Current/Filed)
230kts
Departed: 30-Nov-20 09:54 PM
Arrived: 30-Nov-20 10:37 PM
Distance/Time
Traveled:
108nm/0:42
Distance/Time
To Go:
Arrived

Flight Plot

Page will automatically refresh every two minutes.

Flight plan parsing failed; only flown route is shown


Map Options




Map Legend


Flown Route
Filed Route
Departure Airport
Arrival Airport
Navaid (VOR, NDB)
Fix

Horizontal Profiles

Position Reports

Time Latitude Longitude Heading Altitude Ground
Speed
30-Nov-20 21:41 33.671943 -117.867282 206 59ft 0kts
30-Nov-20 21:42 33.671943 -117.867282 206 59ft 0kts
30-Nov-20 21:43 33.671943 -117.867282 206 59ft 0kts
30-Nov-20 21:44 33.671943 -117.867282 206 59ft 0kts
30-Nov-20 21:45 33.671943 -117.867282 206 59ft 0kts
30-Nov-20 21:46 33.671943 -117.867282 206 59ft 0kts
30-Nov-20 21:47 33.671943 -117.867282 206 59ft 0kts
30-Nov-20 21:48 33.672873 -117.867557 46 59ft 16kts
30-Nov-20 21:49 33.675876 -117.865349 28 59ft 20kts
30-Nov-20 21:50 33.680133 -117.862670 13 59ft 12kts
30-Nov-20 21:51 33.680717 -117.863217 297 59ft 0kts
30-Nov-20 21:52 33.680940 -117.863708 299 59ft 15kts
30-Nov-20 21:54 33.667400 -117.874185 208 237ft 140kts
30-Nov-20 21:55 33.625038 -117.885376 187 1613ft 165kts
30-Nov-20 21:56 33.622566 -117.885766 187 1673ft 166kts
30-Nov-20 21:59 33.432427 -117.921924 219 5014ft 213kts
30-Nov-20 22:00 33.388483 -117.966439 221 5894ft 190kts
30-Nov-20 22:01 33.351022 -118.007414 222 6997ft 177kts
30-Nov-20 22:02 33.313932 -118.046597 223 8015ft 182kts
30-Nov-20 22:03 33.305536 -118.106590 281 8005ft 211kts
30-Nov-20 22:04 33.315923 -118.177734 281 8001ft 221kts
30-Nov-20 22:05 33.328594 -118.252856 290 8001ft 237kts
30-Nov-20 22:06 33.350216 -118.328431 290 8000ft 242kts
30-Nov-20 22:07 33.370912 -118.405486 291 7999ft 244kts
30-Nov-20 22:08 33.410511 -118.472194 313 8001ft 251kts
30-Nov-20 22:09 33.456388 -118.535966 311 8000ft 254kts
30-Nov-20 22:10 33.495312 -118.591411 311 7999ft 255kts
30-Nov-20 22:11 33.540809 -118.656397 310 7999ft 255kts
30-Nov-20 22:11 33.578855 -118.710834 310 7999ft 255kts
30-Nov-20 22:13 33.632010 -118.787032 310 7999ft 255kts
30-Nov-20 22:13 33.669842 -118.841358 310 7992ft 255kts
30-Nov-20 22:14 33.714104 -118.908212 308 7998ft 255kts
30-Nov-20 22:15 33.759073 -118.973911 310 8002ft 255kts
30-Nov-20 22:16 33.814705 -119.023334 344 8002ft 253kts
30-Nov-20 22:17 33.883944 -119.035817 353 8007ft 252kts
30-Nov-20 22:18 33.954221 -119.039386 358 8007ft 252kts
30-Nov-20 22:19 34.024474 -119.041047 358 8008ft 253kts
30-Nov-20 22:20 34.094887 -119.043265 357 8008ft 253kts
30-Nov-20 22:21 34.136198 -119.101262 299 8014ft 235kts
30-Nov-20 22:22 34.169217 -119.170330 301 8006ft 240kts
30-Nov-20 22:23 34.202735 -119.240370 300 7780ft 243kts
30-Nov-20 22:24 34.232673 -119.307419 299 6724ft 219kts
30-Nov-20 22:25 34.257625 -119.363675 298 5448ft 225kts
30-Nov-20 22:26 34.285581 -119.431399 297 4039ft 223kts
30-Nov-20 22:27 34.310056 -119.490875 298 4007ft 176kts
30-Nov-20 22:28 34.329861 -119.543227 295 4015ft 166kts
30-Nov-20 22:29 34.347372 -119.594043 294 3841ft 169kts
30-Nov-20 22:30 34.367283 -119.645285 302 3537ft 150kts
30-Nov-20 22:31 34.387219 -119.681364 310 3198ft 127kts
30-Nov-20 22:32 34.412922 -119.712681 316 2585ft 134kts
30-Nov-20 22:33 34.431656 -119.751183 266 1662ft 138kts
30-Nov-20 22:34 34.428629 -119.794539 268 741ft 116kts
30-Nov-20 22:35 34.427922 -119.832912 267 84ft 113kts
30-Nov-20 22:36 34.427688 -119.845489 265 16ft 31kts

Navigation Log

Ident Type
Flight plan parsing failed, navigation log unavailable